world map with EKSB marked

EKSB - Airport

This information may not be accurate or current and is not valid for navigation or flight planning. No warranty of fitness for any purpose is made or implied.

flag of Denmark

Donate via PayPal

Additional information is available on the NEW Great Circle Mapper

Location
City:  Sønderborg, Denmark
ICAO / IATA:EKSB / SGD

Details
Type:Airport (Aerodrome, Airfield)
Latitude:54°57'52"N (54.964367)
Longitude:9°47'30"E (9.791731)
Elevation:24 ft (7 m)
Runways:1
Longest:5896 × 98 ft (1797 × 30 m)

Time
Timezone:UTC+1 (DST+4)
Local Time:

Weather
METAR:EKSB  132120Z 06013KT 9999 SCT020 BKN060 03/00 Q1027

Related Locations
Nearby:
Farthest:CHT: 11611 mi / 18686 km
Waitangi [Tuuta], CIT, NZ

Find:

   beyond  
but within

Other Information
Maps:
Sources:

  


 


Great Circle Mapper   Great Circle Mapper
Great Circle Mapper FAQ   Great Circle Mapper FAQ
  Karl's Home Page
KLS²   KLS² Home
   GC on Facebook
Airlines of the World   Airlines of the World
Donate via PayPal


Copyright © 2004-2018, Karl L. Swartz. All rights reserved.
All trademarks mentioned herein belong to their respective owners.

Please see credits for attribution and copyright information.

Karl Swartz <karl@kls2.com>
  Powered by FreeBSD
Valid HTML 4.01!
Labeled with ICRA
hCard Microformat
Geo Microformat